<?xml version="1.0" encoding="UTF-8" standalone="no" ?>
<gpx xmlns="http://www.topografix.com/GPX/1/1" xmlns:xsi="http://www.w3.org/2001/XMLSchema-instance" xsi:schemaLocation="http://www.topografix.com/GPX/1/1 http://www.topografix.com/GPX/1/1/gpx.xsd" version="1.1" creator="VisuGPX - https://www.visugpx.com">
  <metadata>
    <name>Bagnols -Pennafort -Fille d'Isnard</name>
    <desc><![CDATA[avec RA]]></desc>
  </metadata>
  <trk>
    <name><![CDATA[Bagnols -Pennafort -Fille d'Isnard_12]]></name>
    <trkseg>
      <trkpt lat="43.55439" lon="6.79419">
        <ele>149.7</ele>
        <time>2025-10-24T06:27:29.000Z</time>
      </trkpt>
      <trkpt lat="43.55442" lon="6.79421">
        <ele>149.7</ele>
        <time>2025-10-24T06:27:30.000Z</time>
      </trkpt>
      <trkpt lat="43.55444" lon="6.79424">
        <ele>149.8</ele>
        <time>2025-10-24T06:27:31.000Z</time>
      </trkpt>
      <trkpt lat="43.55447" lon="6.79425">
        <ele>149.8</ele>
        <time>2025-10-24T06:27:32.000Z</time>
      </trkpt>
      <trkpt lat="43.5545" lon="6.79427">
        <ele>149.7</ele>
        <time>2025-10-24T06:27:33.000Z</time>
      </trkpt>
      <trkpt lat="43.55453" lon="6.79429">
        <ele>149.7</ele>
        <time>2025-10-24T06:27:34.000Z</time>
      </trkpt>
      <trkpt lat="43.55456" lon="6.7943">
        <ele>149.7</ele>
        <time>2025-10-24T06:27:35.000Z</time>
      </trkpt>
      <trkpt lat="43.55459" lon="6.79431">
        <ele>149.7</ele>
        <time>2025-10-24T06:27:36.000Z</time>
      </trkpt>
      <trkpt lat="43.55462" lon="6.79431">
        <ele>149.7</ele>
        <time>2025-10-24T06:27:37.000Z</time>
      </trkpt>
      <trkpt lat="43.55465" lon="6.79432">
        <ele>149.7</ele>
        <time>2025-10-24T06:27:38.000Z</time>
      </trkpt>
      <trkpt lat="43.55469" lon="6.79432">
        <ele>149.7</ele>
        <time>2025-10-24T06:27:39.000Z</time>
      </trkpt>
      <trkpt lat="43.55472" lon="6.79432">
        <ele>149.7</ele>
        <time>2025-10-24T06:27:40.000Z</time>
      </trkpt>
      <trkpt lat="43.55475" lon="6.79432">
        <ele>149.7</ele>
        <time>2025-10-24T06:27:41.000Z</time>
      </trkpt>
      <trkpt lat="43.55479" lon="6.79432">
        <ele>149.7</ele>
        <time>2025-10-24T06:27:42.000Z</time>
      </trkpt>
      <trkpt lat="43.55482" lon="6.79432">
        <ele>149.7</ele>
        <time>2025-10-24T06:27:43.000Z</time>
      </trkpt>
      <trkpt lat="43.55486" lon="6.79432">
        <ele>149.7</ele>
        <time>2025-10-24T06:27:44.000Z</time>
      </trkpt>
      <trkpt lat="43.55489" lon="6.79432">
        <ele>149.7</ele>
        <time>2025-10-24T06:27:45.000Z</time>
      </trkpt>
      <trkpt lat="43.55492" lon="6.79432">
        <ele>149.7</ele>
        <time>2025-10-24T06:27:46.000Z</time>
      </trkpt>
      <trkpt lat="43.55495" lon="6.79432">
        <ele>149.7</ele>
        <time>2025-10-24T06:27:47.000Z</time>
      </trkpt>
      <trkpt lat="43.55498" lon="6.79432">
        <ele>149.7</ele>
        <time>2025-10-24T06:27:48.000Z</time>
      </trkpt>
      <trkpt lat="43.555" lon="6.79433">
        <ele>149.7</ele>
        <time>2025-10-24T06:27:49.000Z</time>
      </trkpt>
      <trkpt lat="43.55503" lon="6.79434">
        <ele>149.7</ele>
        <time>2025-10-24T06:27:50.000Z</time>
      </trkpt>
      <trkpt lat="43.55506" lon="6.79434">
        <ele>149.7</ele>
        <time>2025-10-24T06:27:51.000Z</time>
      </trkpt>
      <trkpt lat="43.55509" lon="6.79435">
        <ele>149.8</ele>
        <time>2025-10-24T06:27:52.000Z</time>
      </trkpt>
      <trkpt lat="43.55512" lon="6.79435">
        <ele>149.8</ele>
        <time>2025-10-24T06:27:53.000Z</time>
      </trkpt>
      <trkpt lat="43.55514" lon="6.79435">
        <ele>149.8</ele>
        <time>2025-10-24T06:27:54.000Z</time>
      </trkpt>
      <trkpt lat="43.55517" lon="6.79435">
        <ele>149.9</ele>
        <time>2025-10-24T06:27:55.000Z</time>
      </trkpt>
      <trkpt lat="43.55518" lon="6.79435">
        <ele>149.9</ele>
        <time>2025-10-24T06:27:56.000Z</time>
      </trkpt>
      <trkpt lat="43.5552" lon="6.79435">
        <ele>149.9</ele>
        <time>2025-10-24T06:27:57.000Z</time>
      </trkpt>
      <trkpt lat="43.55521" lon="6.79436">
        <ele>149.9</ele>
        <time>2025-10-24T06:27:58.000Z</time>
      </trkpt>
      <trkpt lat="43.55521" lon="6.79438">
        <ele>150.2</ele>
        <time>2025-10-24T06:27:59.000Z</time>
      </trkpt>
      <trkpt lat="43.55521" lon="6.7944">
        <ele>150.4</ele>
        <time>2025-10-24T06:28:00.000Z</time>
      </trkpt>
      <trkpt lat="43.5552" lon="6.79441">
        <ele>150.6</ele>
        <time>2025-10-24T06:28:01.000Z</time>
      </trkpt>
      <trkpt lat="43.55518" lon="6.79443">
        <ele>150.9</ele>
        <time>2025-10-24T06:28:02.000Z</time>
      </trkpt>
      <trkpt lat="43.55517" lon="6.79444">
        <ele>151.2</ele>
        <time>2025-10-24T06:28:03.000Z</time>
      </trkpt>
      <trkpt lat="43.55516" lon="6.79445">
        <ele>151.3</ele>
        <time>2025-10-24T06:28:04.000Z</time>
      </trkpt>
      <trkpt lat="43.55515" lon="6.79446">
        <ele>151.5</ele>
        <time>2025-10-24T06:28:05.000Z</time>
      </trkpt>
      <trkpt lat="43.55515" lon="6.79446">
        <ele>151.5</ele>
        <time>2025-10-24T06:28:06.000Z</time>
      </trkpt>
      <trkpt lat="43.55515" lon="6.79446">
        <ele>151.5</ele>
        <time>2025-10-24T06:28:07.000Z</time>
      </trkpt>
      <trkpt lat="43.55515" lon="6.79447">
        <ele>151.6</ele>
        <time>2025-10-24T06:28:08.000Z</time>
      </trkpt>
      <trkpt lat="43.55515" lon="6.79448">
        <ele>151.7</ele>
        <time>2025-10-24T06:28:09.000Z</time>
      </trkpt>
      <trkpt lat="43.55515" lon="6.79449">
        <ele>151.8</ele>
        <time>2025-10-24T06:28:10.000Z</time>
      </trkpt>
      <trkpt lat="43.55515" lon="6.7945">
        <ele>151.9</ele>
        <time>2025-10-24T06:28:11.000Z</time>
      </trkpt>
      <trkpt lat="43.55514" lon="6.79451">
        <ele>152.1</ele>
        <time>2025-10-24T06:28:12.000Z</time>
      </trkpt>
      <trkpt lat="43.55514" lon="6.79453">
        <ele>152.2</ele>
        <time>2025-10-24T06:28:13.000Z</time>
      </trkpt>
      <trkpt lat="43.55514" lon="6.79454">
        <ele>152.4</ele>
        <time>2025-10-24T06:28:14.000Z</time>
      </trkpt>
      <trkpt lat="43.55515" lon="6.79456">
        <ele>152.6</ele>
        <time>2025-10-24T06:28:15.000Z</time>
      </trkpt>
      <trkpt lat="43.55516" lon="6.79457">
        <ele>152.8</ele>
        <time>2025-10-24T06:28:16.000Z</time>
      </trkpt>
      <trkpt lat="43.55517" lon="6.79459">
        <ele>153.1</ele>
        <time>2025-10-24T06:28:17.000Z</time>
      </trkpt>
      <trkpt lat="43.55519" lon="6.7946">
        <ele>153.4</ele>
        <time>2025-10-24T06:28:18.000Z</time>
      </trkpt>
      <trkpt lat="43.5552" lon="6.7946">
        <ele>153.6</ele>
        <time>2025-10-24T06:28:19.000Z</time>
      </trkpt>
      <trkpt lat="43.55521" lon="6.79461">
        <ele>153.8</ele>
        <time>2025-10-24T06:28:20.000Z</time>
      </trkpt>
      <trkpt lat="43.55521" lon="6.79462">
        <ele>154</ele>
        <time>2025-10-24T06:28:21.000Z</time>
      </trkpt>
      <trkpt lat="43.55523" lon="6.79462">
        <ele>154.3</ele>
        <time>2025-10-24T06:28:22.000Z</time>
      </trkpt>
      <trkpt lat="43.55524" lon="6.79463">
        <ele>154.5</ele>
        <time>2025-10-24T06:28:23.000Z</time>
      </trkpt>
      <trkpt lat="43.55525" lon="6.79465">
        <ele>154.8</ele>
        <time>2025-10-24T06:28:24.000Z</time>
      </trkpt>
      <trkpt lat="43.55526" lon="6.79466">
        <ele>155.1</ele>
        <time>2025-10-24T06:28:25.000Z</time>
      </trkpt>
      <trkpt lat="43.55526" lon="6.79466">
        <ele>155.2</ele>
        <time>2025-10-24T06:28:26.000Z</time>
      </trkpt>
      <trkpt lat="43.55527" lon="6.79467">
        <ele>155.3</ele>
        <time>2025-10-24T06:28:27.000Z</time>
      </trkpt>
      <trkpt lat="43.55527" lon="6.79467">
        <ele>155.4</ele>
        <time>2025-10-24T06:28:28.000Z</time>
      </trkpt>
      <trkpt lat="43.55527" lon="6.79467">
        <ele>155.4</ele>
        <time>2025-10-24T06:28:29.000Z</time>
      </trkpt>
      <trkpt lat="43.55527" lon="6.79467">
        <ele>155.4</ele>
        <time>2025-10-24T06:28:30.000Z</time>
      </trkpt>
      <trkpt lat="43.55527" lon="6.79468">
        <ele>155.5</ele>
        <time>2025-10-24T06:28:31.000Z</time>
      </trkpt>
      <trkpt lat="43.55527" lon="6.79469">
        <ele>155.6</ele>
        <time>2025-10-24T06:28:32.000Z</time>
      </trkpt>
      <trkpt lat="43.55528" lon="6.7947">
        <ele>155.7</ele>
        <time>2025-10-24T06:28:33.000Z</time>
      </trkpt>
      <trkpt lat="43.55528" lon="6.7947">
        <ele>155.9</ele>
        <time>2025-10-24T06:28:34.000Z</time>
      </trkpt>
      <trkpt lat="43.55529" lon="6.79471">
        <ele>156</ele>
        <time>2025-10-24T06:28:35.000Z</time>
      </trkpt>
      <trkpt lat="43.55529" lon="6.79472">
        <ele>156.1</ele>
        <time>2025-10-24T06:28:36.000Z</time>
      </trkpt>
      <trkpt lat="43.55529" lon="6.79473">
        <ele>156.2</ele>
        <time>2025-10-24T06:28:37.000Z</time>
      </trkpt>
      <trkpt lat="43.55529" lon="6.79475">
        <ele>156.4</ele>
        <time>2025-10-24T06:28:38.000Z</time>
      </trkpt>
      <trkpt lat="43.55528" lon="6.79477">
        <ele>156.6</ele>
        <time>2025-10-24T06:28:39.000Z</time>
      </trkpt>
      <trkpt lat="43.55528" lon="6.79479">
        <ele>156.8</ele>
        <time>2025-10-24T06:28:40.000Z</time>
      </trkpt>
      <trkpt lat="43.55527" lon="6.79481">
        <ele>157</ele>
        <time>2025-10-24T06:28:41.000Z</time>
      </trkpt>
      <trkpt lat="43.55526" lon="6.79484">
        <ele>157.2</ele>
        <time>2025-10-24T06:28:42.000Z</time>
      </trkpt>
      <trkpt lat="43.55525" lon="6.79486">
        <ele>157.3</ele>
        <time>2025-10-24T06:28:43.000Z</time>
      </trkpt>
      <trkpt lat="43.55524" lon="6.79488">
        <ele>157.5</ele>
        <time>2025-10-24T06:28:44.000Z</time>
      </trkpt>
      <trkpt lat="43.55523" lon="6.7949">
        <ele>157.6</ele>
        <time>2025-10-24T06:28:45.000Z</time>
      </trkpt>
      <trkpt lat="43.55522" lon="6.79493">
        <ele>157.7</ele>
        <time>2025-10-24T06:28:46.000Z</time>
      </trkpt>
      <trkpt lat="43.55522" lon="6.79496">
        <ele>157.8</ele>
        <time>2025-10-24T06:28:47.000Z</time>
      </trkpt>
      <trkpt lat="43.55522" lon="6.79498">
        <ele>157.8</ele>
        <time>2025-10-24T06:28:48.000Z</time>
      </trkpt>
      <trkpt lat="43.55522" lon="6.79501">
        <ele>157.9</ele>
        <time>2025-10-24T06:28:49.000Z</time>
      </trkpt>
      <trkpt lat="43.55522" lon="6.79505">
        <ele>157.9</ele>
        <time>2025-10-24T06:28:50.000Z</time>
      </trkpt>
      <trkpt lat="43.55522" lon="6.79508">
        <ele>157.9</ele>
        <time>2025-10-24T06:28:51.000Z</time>
      </trkpt>
      <trkpt lat="43.55522" lon="6.79512">
        <ele>157.9</ele>
        <time>2025-10-24T06:28:52.000Z</time>
      </trkpt>
      <trkpt lat="43.55521" lon="6.79515">
        <ele>157.9</ele>
        <time>2025-10-24T06:28:53.000Z</time>
      </trkpt>
      <trkpt lat="43.55521" lon="6.79518">
        <ele>157.9</ele>
        <time>2025-10-24T06:28:54.000Z</time>
      </trkpt>
      <trkpt lat="43.5552" lon="6.79522">
        <ele>157.8</ele>
        <time>2025-10-24T06:28:55.000Z</time>
      </trkpt>
      <trkpt lat="43.55519" lon="6.79525">
        <ele>157.8</ele>
        <time>2025-10-24T06:28:56.000Z</time>
      </trkpt>
      <trkpt lat="43.55518" lon="6.79528">
        <ele>157.7</ele>
        <time>2025-10-24T06:28:57.000Z</time>
      </trkpt>
      <trkpt lat="43.55517" lon="6.79532">
        <ele>157.7</ele>
        <time>2025-10-24T06:28:58.000Z</time>
      </trkpt>
      <trkpt lat="43.55517" lon="6.79535">
        <ele>157.7</ele>
        <time>2025-10-24T06:28:59.000Z</time>
      </trkpt>
      <trkpt lat="43.55517" lon="6.79538">
        <ele>157.7</ele>
        <time>2025-10-24T06:29:00.000Z</time>
      </trkpt>
      <trkpt lat="43.55516" lon="6.79542">
        <ele>157.7</ele>
        <time>2025-10-24T06:29:01.000Z</time>
      </trkpt>
      <trkpt lat="43.55516" lon="6.79545">
        <ele>157.8</ele>
        <time>2025-10-24T06:29:02.000Z</time>
      </trkpt>
      <trkpt lat="43.55515" lon="6.79549">
        <ele>157.8</ele>
        <time>2025-10-24T06:29:03.000Z</time>
      </trkpt>
      <trkpt lat="43.55515" lon="6.79553">
        <ele>157.9</ele>
        <time>2025-10-24T06:29:04.000Z</time>
      </trkpt>
      <trkpt lat="43.55515" lon="6.79556">
        <ele>158.1</ele>
        <time>2025-10-24T06:29:05.000Z</time>
      </trkpt>
      <trkpt lat="43.55516" lon="6.7956">
        <ele>158.2</ele>
        <time>2025-10-24T06:29:06.000Z</time>
      </trkpt>
      <trkpt lat="43.55515" lon="6.79563">
        <ele>158.3</ele>
        <time>2025-10-24T06:29:07.000Z</time>
      </trkpt>
      <trkpt lat="43.55515" lon="6.79566">
        <ele>158.4</ele>
        <time>2025-10-24T06:29:08.000Z</time>
      </trkpt>
      <trkpt lat="43.55514" lon="6.79568">
        <ele>158.5</ele>
        <time>2025-10-24T06:29:09.000Z</time>
      </trkpt>
      <trkpt lat="43.55513" lon="6.7957">
        <ele>158.6</ele>
        <time>2025-10-24T06:29:10.000Z</time>
      </trkpt>
      <trkpt lat="43.55511" lon="6.79572">
        <ele>158.8</ele>
        <time>2025-10-24T06:29:11.000Z</time>
      </trkpt>
      <trkpt lat="43.55511" lon="6.79575">
        <ele>158.9</ele>
        <time>2025-10-24T06:29:12.000Z</time>
      </trkpt>
      <trkpt lat="43.55511" lon="6.79579">
        <ele>159</ele>
        <time>2025-10-24T06:29:13.000Z</time>
      </trkpt>
      <trkpt lat="43.55511" lon="6.79582">
        <ele>159.1</ele>
        <time>2025-10-24T06:29:14.000Z</time>
      </trkpt>
      <trkpt lat="43.55513" lon="6.79584">
        <ele>159.2</ele>
        <time>2025-10-24T06:29:15.000Z</time>
      </trkpt>
      <trkpt lat="43.55515" lon="6.79587">
        <ele>159.4</ele>
        <time>2025-10-24T06:29:16.000Z</time>
      </trkpt>
      <trkpt lat="43.55517" lon="6.79589">
        <ele>159.4</ele>
        <time>2025-10-24T06:29:17.000Z</time>
      </trkpt>
      <trkpt lat="43.55519" lon="6.7959">
        <ele>159.4</ele>
        <time>2025-10-24T06:29:18.000Z</time>
      </trkpt>
      <trkpt lat="43.55522" lon="6.79592">
        <ele>159.4</ele>
        <time>2025-10-24T06:29:19.000Z</time>
      </trkpt>
      <trkpt lat="43.55525" lon="6.79593">
        <ele>159.5</ele>
        <time>2025-10-24T06:29:20.000Z</time>
      </trkpt>
      <trkpt lat="43.55528" lon="6.79595">
        <ele>159.5</ele>
        <time>2025-10-24T06:29:21.000Z</time>
      </trkpt>
      <trkpt lat="43.55531" lon="6.79596">
        <ele>159.5</ele>
        <time>2025-10-24T06:29:22.000Z</time>
      </trkpt>
      <trkpt lat="43.55534" lon="6.79597">
        <ele>159.6</ele>
        <time>2025-10-24T06:29:23.000Z</time>
      </trkpt>
      <trkpt lat="43.55536" lon="6.79599">
        <ele>159.6</ele>
        <time>2025-10-24T06:29:24.000Z</time>
      </trkpt>
      <trkpt lat="43.55539" lon="6.796">
        <ele>159.6</ele>
        <time>2025-10-24T06:29:25.000Z</time>
      </trkpt>
      <trkpt lat="43.55543" lon="6.796">
        <ele>159.6</ele>
        <time>2025-10-24T06:29:26.000Z</time>
      </trkpt>
      <trkpt lat="43.55546" lon="6.79601">
        <ele>159.6</ele>
        <time>2025-10-24T06:29:27.000Z</time>
      </trkpt>
      <trkpt lat="43.55549" lon="6.79601">
        <ele>159.6</ele>
        <time>2025-10-24T06:29:28.000Z</time>
      </trkpt>
      <trkpt lat="43.55552" lon="6.79601">
        <ele>159.7</ele>
        <time>2025-10-24T06:29:29.000Z</time>
      </trkpt>
      <trkpt lat="43.55555" lon="6.79602">
        <ele>159.7</ele>
        <time>2025-10-24T06:29:30.000Z</time>
      </trkpt>
      <trkpt lat="43.55558" lon="6.79603">
        <ele>159.7</ele>
        <time>2025-10-24T06:29:31.000Z</time>
      </trkpt>
      <trkpt lat="43.55561" lon="6.79605">
        <ele>159.7</ele>
        <time>2025-10-24T06:29:32.000Z</time>
      </trkpt>
      <trkpt lat="43.55564" lon="6.79606">
        <ele>159.7</ele>
        <time>2025-10-24T06:29:33.000Z</time>
      </trkpt>
      <trkpt lat="43.55566" lon="6.79608">
        <ele>159.7</ele>
        <time>2025-10-24T06:29:34.000Z</time>
      </trkpt>
      <trkpt lat="43.55568" lon="6.79609">
        <ele>159.7</ele>
        <time>2025-10-24T06:29:35.000Z</time>
      </trkpt>
      <trkpt lat="43.5557" lon="6.79611">
        <ele>159.7</ele>
        <time>2025-10-24T06:29:36.000Z</time>
      </trkpt>
      <trkpt lat="43.55572" lon="6.79613">
        <ele>159.7</ele>
        <time>2025-10-24T06:29:37.000Z</time>
      </trkpt>
      <trkpt lat="43.55574" lon="6.79615">
        <ele>159.7</ele>
        <time>2025-10-24T06:29:38.000Z</time>
      </trkpt>
      <trkpt lat="43.55577" lon="6.79617">
        <ele>159.7</ele>
        <time>2025-10-24T06:29:39.000Z</time>
      </trkpt>
      <trkpt lat="43.55579" lon="6.7962">
        <ele>159.7</ele>
        <time>2025-10-24T06:29:40.000Z</time>
      </trkpt>
      <trkpt lat="43.55582" lon="6.79623">
        <ele>159.6</ele>
        <time>2025-10-24T06:29:41.000Z</time>
      </trkpt>
      <trkpt lat="43.55585" lon="6.79626">
        <ele>159.6</ele>
        <time>2025-10-24T06:29:42.000Z</time>
      </trkpt>
      <trkpt lat="43.55588" lon="6.7963">
        <ele>159.6</ele>
        <time>2025-10-24T06:29:43.000Z</time>
      </trkpt>
      <trkpt lat="43.5559" lon="6.79633">
        <ele>159.5</ele>
        <time>2025-10-24T06:29:44.000Z</time>
      </trkpt>
      <trkpt lat="43.55593" lon="6.79636">
        <ele>159.5</ele>
        <time>2025-10-24T06:29:45.000Z</time>
      </trkpt>
      <trkpt lat="43.55596" lon="6.79639">
        <ele>159.5</ele>
        <time>2025-10-24T06:29:46.000Z</time>
      </trkpt>
      <trkpt lat="43.556" lon="6.79642">
        <ele>159.4</ele>
        <time>2025-10-24T06:29:47.000Z</time>
      </trkpt>
      <trkpt lat="43.55603" lon="6.79644">
        <ele>159.4</ele>
        <time>2025-10-24T06:29:48.000Z</time>
      </trkpt>
      <trkpt lat="43.55607" lon="6.79646">
        <ele>159.4</ele>
        <time>2025-10-24T06:29:49.000Z</time>
      </trkpt>
      <trkpt lat="43.55611" lon="6.79648">
        <ele>159.4</ele>
        <time>2025-10-24T06:29:50.000Z</time>
      </trkpt>
      <trkpt lat="43.55614" lon="6.7965">
        <ele>159.4</ele>
        <time>2025-10-24T06:29:51.000Z</time>
      </trkpt>
      <trkpt lat="43.55618" lon="6.79651">
        <ele>159.4</ele>
        <time>2025-10-24T06:29:52.000Z</time>
      </trkpt>
      <trkpt lat="43.55621" lon="6.79652">
        <ele>159.4</ele>
        <time>2025-10-24T06:29:53.000Z</time>
      </trkpt>
      <trkpt lat="43.55625" lon="6.79653">
        <ele>159.4</ele>
        <time>2025-10-24T06:29:54.000Z</time>
      </trkpt>
      <trkpt lat="43.55628" lon="6.79653">
        <ele>159.4</ele>
        <time>2025-10-24T06:29:55.000Z</time>
      </trkpt>
      <trkpt lat="43.55632" lon="6.79652">
        <ele>159.5</ele>
        <time>2025-10-24T06:29:56.000Z</time>
      </trkpt>
      <trkpt lat="43.55635" lon="6.7965">
        <ele>159.5</ele>
        <time>2025-10-24T06:29:57.000Z</time>
      </trkpt>
      <trkpt lat="43.55638" lon="6.79649">
        <ele>159.5</ele>
        <time>2025-10-24T06:29:58.000Z</time>
      </trkpt>
      <trkpt lat="43.55641" lon="6.79648">
        <ele>159.6</ele>
        <time>2025-10-24T06:29:59.000Z</time>
      </trkpt>
      <trkpt lat="43.55643" lon="6.79648">
        <ele>159.6</ele>
        <time>2025-10-24T06:30:00.000Z</time>
      </trkpt>
      <trkpt lat="43.55646" lon="6.79648">
        <ele>159.7</ele>
        <time>2025-10-24T06:30:01.000Z</time>
      </trkpt>
      <trkpt lat="43.55648" lon="6.79649">
        <ele>159.7</ele>
        <time>2025-10-24T06:30:02.000Z</time>
      </trkpt>
      <trkpt lat="43.55649" lon="6.79651">
        <ele>159.7</ele>
        <time>2025-10-24T06:30:03.000Z</time>
      </trkpt>
      <trkpt lat="43.55651" lon="6.79653">
        <ele>159.7</ele>
        <time>2025-10-24T06:30:04.000Z</time>
      </trkpt>
      <trkpt lat="43.55651" lon="6.79655">
        <ele>159.7</ele>
        <time>2025-10-24T06:30:05.000Z</time>
      </trkpt>
      <trkpt lat="43.55652" lon="6.79658">
        <ele>159.7</ele>
        <time>2025-10-24T06:30:06.000Z</time>
      </trkpt>
      <trkpt lat="43.55653" lon="6.7966">
        <ele>159.8</ele>
        <time>2025-10-24T06:30:07.000Z</time>
      </trkpt>
      <trkpt lat="43.55654" lon="6.79663">
        <ele>159.8</ele>
        <time>2025-10-24T06:30:08.000Z</time>
      </trkpt>
      <trkpt lat="43.55655" lon="6.79666">
        <ele>159.9</ele>
        <time>2025-10-24T06:30:09.000Z</time>
      </trkpt>
      <trkpt lat="43.55656" lon="6.79669">
        <ele>160</ele>
        <time>2025-10-24T06:30:10.000Z</time>
      </trkpt>
      <trkpt lat="43.55657" lon="6.79672">
        <ele>160</ele>
        <time>2025-10-24T06:30:11.000Z</time>
      </trkpt>
      <trkpt lat="43.55658" lon="6.79677">
        <ele>160.1</ele>
        <time>2025-10-24T06:30:12.000Z</time>
      </trkpt>
      <trkpt lat="43.55659" lon="6.7968">
        <ele>160.2</ele>
        <time>2025-10-24T06:30:13.000Z</time>
      </trkpt>
      <trkpt lat="43.55661" lon="6.79684">
        <ele>160.4</ele>
        <time>2025-10-24T06:30:14.000Z</time>
      </trkpt>
      <trkpt lat="43.55664" lon="6.79687">
        <ele>160.5</ele>
        <time>2025-10-24T06:30:15.000Z</time>
      </trkpt>
      <trkpt lat="43.55667" lon="6.7969">
        <ele>160.6</ele>
        <time>2025-10-24T06:30:16.000Z</time>
      </trkpt>
      <trkpt lat="43.5567" lon="6.79692">
        <ele>160.7</ele>
        <time>2025-10-24T06:30:17.000Z</time>
      </trkpt>
      <trkpt lat="43.55673" lon="6.79694">
        <ele>160.9</ele>
        <time>2025-10-24T06:30:18.000Z</time>
      </trkpt>
      <trkpt lat="43.55676" lon="6.79697">
        <ele>161</ele>
        <time>2025-10-24T06:30:19.000Z</time>
      </trkpt>
      <trkpt lat="43.55679" lon="6.79699">
        <ele>161.2</ele>
        <time>2025-10-24T06:30:20.000Z</time>
      </trkpt>
      <trkpt lat="43.55682" lon="6.79701">
        <ele>161.3</ele>
        <time>2025-10-24T06:30:21.000Z</time>
      </trkpt>
      <trkpt lat="43.55685" lon="6.79703">
        <ele>161.4</ele>
        <time>2025-10-24T06:30:22.000Z</time>
      </trkpt>
      <trkpt lat="43.55688" lon="6.79704">
        <ele>161.6</ele>
        <time>2025-10-24T06:30:23.000Z</time>
      </trkpt>
      <trkpt lat="43.55692" lon="6.79704">
        <ele>161.7</ele>
        <time>2025-10-24T06:30:24.000Z</time>
      </trkpt>
      <trkpt lat="43.55695" lon="6.79705">
        <ele>161.8</ele>
        <time>2025-10-24T06:30:25.000Z</time>
      </trkpt>
      <trkpt lat="43.55698" lon="6.79706">
        <ele>161.8</ele>
        <time>2025-10-24T06:30:26.000Z</time>
      </trkpt>
      <trkpt lat="43.557" lon="6.79709">
        <ele>161.9</ele>
        <time>2025-10-24T06:30:27.000Z</time>
      </trkpt>
      <trkpt lat="43.55703" lon="6.79711">
        <ele>162</ele>
        <time>2025-10-24T06:30:28.000Z</time>
      </trkpt>
      <trkpt lat="43.55706" lon="6.79714">
        <ele>162.1</ele>
        <time>2025-10-24T06:30:29.000Z</time>
      </trkpt>
      <trkpt lat="43.55708" lon="6.79716">
        <ele>162.2</ele>
        <time>2025-10-24T06:30:30.000Z</time>
      </trkpt>
      <trkpt lat="43.55711" lon="6.79719">
        <ele>162.2</ele>
        <time>2025-10-24T06:30:31.000Z</time>
      </trkpt>
      <trkpt lat="43.55714" lon="6.7972">
        <ele>162.3</ele>
        <time>2025-10-24T06:30:32.000Z</time>
      </trkpt>
      <trkpt lat="43.55718" lon="6.79722">
        <ele>162.4</ele>
        <time>2025-10-24T06:30:33.000Z</time>
      </trkpt>
      <trkpt lat="43.5572" lon="6.79723">
        <ele>162.5</ele>
        <time>2025-10-24T06:30:34.000Z</time>
      </trkpt>
      <trkpt lat="43.55723" lon="6.79725">
        <ele>162.5</ele>
        <time>2025-10-24T06:30:35.000Z</time>
      </trkpt>
      <trkpt lat="43.55726" lon="6.79726">
        <ele>162.3</ele>
        <time>2025-10-24T06:30:36.000Z</time>
      </trkpt>
      <trkpt lat="43.55728" lon="6.79727">
        <ele>162</ele>
        <time>2025-10-24T06:30:37.000Z</time>
      </trkpt>
      <trkpt lat="43.5573" lon="6.79727">
        <ele>161.9</ele>
        <time>2025-10-24T06:30:38.000Z</time>
      </trkpt>
      <trkpt lat="43.55733" lon="6.79727">
        <ele>161.7</ele>
        <time>2025-10-24T06:30:39.000Z</time>
      </trkpt>
      <trkpt lat="43.55735" lon="6.79727">
        <ele>161.5</ele>
        <time>2025-10-24T06:30:40.000Z</time>
      </trkpt>
      <trkpt lat="43.55737" lon="6.79727">
        <ele>161.3</ele>
        <time>2025-10-24T06:30:41.000Z</time>
      </trkpt>
      <trkpt lat="43.55739" lon="6.79726">
        <ele>161.1</ele>
        <time>2025-10-24T06:30:42.000Z</time>
      </trkpt>
      <trkpt lat="43.55741" lon="6.79724">
        <ele>160.9</ele>
        <time>2025-10-24T06:30:43.000Z</time>
      </trkpt>
      <trkpt lat="43.55743" lon="6.79722">
        <ele>160.7</ele>
        <time>2025-10-24T06:30:44.000Z</time>
      </trkpt>
      <trkpt lat="43.55744" lon="6.79719">
        <ele>160.4</ele>
        <time>2025-10-24T06:30:45.000Z</time>
      </trkpt>
      <trkpt lat="43.55746" lon="6.79715">
        <ele>160.1</ele>
        <time>2025-10-24T06:30:46.000Z</time>
      </trkpt>
      <trkpt lat="43.55748" lon="6.79712">
        <ele>159.9</ele>
        <time>2025-10-24T06:30:47.000Z</time>
      </trkpt>
      <trkpt lat="43.5575" lon="6.79709">
        <ele>159.6</ele>
        <time>2025-10-24T06:30:48.000Z</time>
      </trkpt>
      <trkpt lat="43.55752" lon="6.79705">
        <ele>159.3</ele>
        <time>2025-10-24T06:30:49.000Z</time>
      </trkpt>
      <trkpt lat="43.55754" lon="6.79701">
        <ele>159.1</ele>
        <time>2025-10-24T06:30:50.000Z</time>
      </trkpt>
      <trkpt lat="43.55755" lon="6.79697">
        <ele>158.9</ele>
        <time>2025-10-24T06:30:51.000Z</time>
      </trkpt>
      <trkpt lat="43.55757" lon="6.79693">
        <ele>158.7</ele>
        <time>2025-10-24T06:30:52.000Z</time>
      </trkpt>
      <trkpt lat="43.55758" lon="6.79689">
        <ele>158.5</ele>
        <time>2025-10-24T06:30:53.000Z</time>
      </trkpt>
      <trkpt lat="43.5576" lon="6.79686">
        <ele>158.4</ele>
        <time>2025-10-24T06:30:54.000Z</time>
      </trkpt>
      <trkpt lat="43.55762" lon="6.79683">
        <ele>158.2</ele>
        <time>2025-10-24T06:30:55.000Z</time>
      </trkpt>
      <trkpt lat="43.55763" lon="6.79679">
        <ele>158.1</ele>
        <time>2025-10-24T06:30:56.000Z</time>
      </trkpt>
      <trkpt lat="43.55766" lon="6.79675">
        <ele>158</ele>
        <time>2025-10-24T06:30:57.000Z</time>
      </trkpt>
      <trkpt lat="43.55768" lon="6.79671">
        <ele>157.8</ele>
        <time>2025-10-24T06:30:58.000Z</time>
      </trkpt>
      <trkpt lat="43.55769" lon="6.79668">
        <ele>157.7</ele>
        <time>2025-10-24T06:30:59.000Z</time>
      </trkpt>
      <trkpt lat="43.55771" lon="6.79664">
        <ele>157.6</ele>
        <time>2025-10-24T06:31:00.000Z</time>
      </trkpt>
      <trkpt lat="43.55773" lon="6.79661">
        <ele>157.4</ele>
        <time>2025-10-24T06:31:01.000Z</time>
      </trkpt>
      <trkpt lat="43.55774" lon="6.79659">
        <ele>157.3</ele>
        <time>2025-10-24T06:31:02.000Z</time>
      </trkpt>
      <trkpt lat="43.55774" lon="6.79658">
        <ele>157.2</ele>
        <time>2025-10-24T06:31:03.000Z</time>
      </trkpt>
      <trkpt lat="43.55774" lon="6.79657">
        <ele>157.2</ele>
        <time>2025-10-24T06:31:04.000Z</time>
      </trkpt>
      <trkpt lat="43.55775" lon="6.79656">
        <ele>157.1</ele>
        <time>2025-10-24T06:31:05.000Z</time>
      </trkpt>
      <trkpt lat="43.55775" lon="6.79656">
        <ele>157.1</ele>
        <time>2025-10-24T06:31:06.000Z</time>
      </trkpt>
      <trkpt lat="43.55774" lon="6.79656">
        <ele>157.1</ele>
        <time>2025-10-24T06:31:07.000Z</time>
      </trkpt>
      <trkpt lat="43.55774" lon="6.79655">
        <ele>157</ele>
        <time>2025-10-24T06:31:08.000Z</time>
      </trkpt>
      <trkpt lat="43.55774" lon="6.79655">
        <ele>157</ele>
        <time>2025-10-24T06:31:09.000Z</time>
      </trkpt>
      <trkpt lat="43.55774" lon="6.79655">
        <ele>157</ele>
        <time>2025-10-24T06:31:10.000Z</time>
      </trkpt>
      <trkpt lat="43.55774" lon="6.79655">
        <ele>156.9</ele>
        <time>2025-10-24T06:31:11.000Z</time>
      </trkpt>
      <trkpt lat="43.55773" lon="6.79655">
        <ele>156.9</ele>
        <time>2025-10-24T06:31:12.000Z</time>
      </trkpt>
      <trkpt lat="43.55773" lon="6.79655">
        <ele>156.9</ele>
        <time>2025-10-24T06:31:13.000Z</time>
      </trkpt>
      <trkpt lat="43.55773" lon="6.79655">
        <ele>156.8</ele>
        <time>2025-10-24T06:31:14.000Z</time>
      </trkpt>
      <trkpt lat="43.55773" lon="6.79655">
        <ele>156.8</ele>
        <time>2025-10-24T06:31:15.000Z</time>
      </trkpt>
      <trkpt lat="43.55773" lon="6.79656">
        <ele>156.8</ele>
        <time>2025-10-24T06:31:16.000Z</time>
      </trkpt>
      <trkpt lat="43.55773" lon="6.79655">
        <ele>156.8</ele>
        <time>2025-10-24T06:31:17.000Z</time>
      </trkpt>
      <trkpt lat="43.55773" lon="6.79655">
        <ele>156.8</ele>
        <time>2025-10-24T06:31:18.000Z</time>
      </trkpt>
      <trkpt lat="43.55773" lon="6.79655">
        <ele>156.8</ele>
        <time>2025-10-24T06:31:19.000Z</time>
      </trkpt>
      <trkpt lat="43.55773" lon="6.79655">
        <ele>156.8</ele>
        <time>2025-10-24T06:31:20.000Z</time>
      </trkpt>
      <trkpt lat="43.55773" lon="6.79655">
        <ele>156.8</ele>
        <time>2025-10-24T06:31:21.000Z</time>
      </trkpt>
      <trkpt lat="43.55773" lon="6.79655">
        <ele>156.8</ele>
        <time>2025-10-24T06:31:22.000Z</time>
      </trkpt>
      <trkpt lat="43.55773" lon="6.79655">
        <ele>156.8</ele>
        <time>2025-10-24T06:31:23.000Z</time>
      </trkpt>
      <trkpt lat="43.55773" lon="6.79655">
        <ele>156.7</ele>
        <time>2025-10-24T06:31:24.000Z</time>
      </trkpt>
      <trkpt lat="43.55774" lon="6.79652">
        <ele>156.5</ele>
        <time>2025-10-24T06:31:25.000Z</time>
      </trkpt>
      <trkpt lat="43.55775" lon="6.7965">
        <ele>156.3</ele>
        <time>2025-10-24T06:31:26.000Z</time>
      </trkpt>
      <trkpt lat="43.55777" lon="6.79648">
        <ele>156.1</ele>
        <time>2025-10-24T06:31:27.000Z</time>
      </trkpt>
      <trkpt lat="43.55778" lon="6.79645">
        <ele>155.8</ele>
        <time>2025-10-24T06:31:28.000Z</time>
      </trkpt>
      <trkpt lat="43.55779" lon="6.79642">
        <ele>155.5</ele>
        <time>2025-10-24T06:31:29.000Z</time>
      </trkpt>
      <trkpt lat="43.5578" lon="6.79639">
        <ele>155.2</ele>
        <time>2025-10-24T06:31:30.000Z</time>
      </trkpt>
      <trkpt lat="43.55781" lon="6.79634">
        <ele>154.8</ele>
        <time>2025-10-24T06:31:31.000Z</time>
      </trkpt>
      <trkpt lat="43.55781" lon="6.79629">
        <ele>154.3</ele>
        <time>2025-10-24T06:31:32.000Z</time>
      </trkpt>
      <trkpt lat="43.55782" lon="6.79626">
        <ele>154</ele>
        <time>2025-10-24T06:31:33.000Z</time>
      </trkpt>
      <trkpt lat="43.55784" lon="6.79622">
        <ele>153.7</ele>
        <time>2025-10-24T06:31:34.000Z</time>
      </trkpt>
      <trkpt lat="43.55786" lon="6.79619">
        <ele>153.3</ele>
        <time>2025-10-24T06:31:35.000Z</time>
      </trkpt>
      <trkpt lat="43.55788" lon="6.79616">
        <ele>153</ele>
        <time>2025-10-24T06:31:36.000Z</time>
      </trkpt>
      <trkpt lat="43.55789" lon="6.79614">
        <ele>152.8</ele>
        <time>2025-10-24T06:31:37.000Z</time>
      </trkpt>
      <trkpt lat="43.55791" lon="6.79611">
        <ele>152.5</ele>
        <time>2025-10-24T06:31:38.000Z</time>
      </trkpt>
      <trkpt lat="43.55792" lon="6.79608">
        <ele>152.2</ele>
        <time>2025-10-24T06:31:39.000Z</time>
      </trkpt>
      <trkpt lat="43.55793" lon="6.79605">
        <ele>151.9</ele>
        <time>2025-10-24T06:31:40.000Z</time>
      </trkpt>
      <trkpt lat="43.55794" lon="6.79602">
        <ele>151.7</ele>
        <time>2025-10-24T06:31:41.000Z</time>
      </trkpt>
      <trkpt lat="43.55795" lon="6.79598">
        <ele>151.4</ele>
        <time>2025-10-24T06:31:42.000Z</time>
      </trkpt>
      <trkpt lat="43.55796" lon="6.79594">
        <ele>151.1</ele>
        <time>2025-10-24T06:31:43.000Z</time>
      </trkpt>
      <trkpt lat="43.55797" lon="6.7959">
        <ele>150.9</ele>
        <time>2025-10-24T06:31:44.000Z</time>
      </trkpt>
      <trkpt lat="43.55797" lon="6.79586">
        <ele>150.7</ele>
        <time>2025-10-24T06:31:45.000Z</time>
      </trkpt>
      <trkpt lat="43.55798" lon="6.79583">
        <ele>150.5</ele>
        <time>2025-10-24T06:31:46.000Z</time>
      </trkpt>
      <trkpt lat="43.558" lon="6.7958">
        <ele>150.3</ele>
        <time>2025-10-24T06:31:47.000Z</time>
      </trkpt>
      <trkpt lat="43.55801" lon="6.79577">
        <ele>150.1</ele>
        <time>2025-10-24T06:31:48.000Z</time>
      </trkpt>
      <trkpt lat="43.55803" lon="6.79575">
        <ele>149.9</ele>
        <time>2025-10-24T06:31:49.000Z</time>
      </trkpt>
      <trkpt lat="43.55804" lon="6.79572">
        <ele>149.8</ele>
        <time>2025-10-24T06:31:50.000Z</time>
      </trkpt>
      <trkpt lat="43.55804" lon="6.7957">
        <ele>149.7</ele>
        <time>2025-10-24T06:31:51.000Z</time>
      </trkpt>
      <trkpt lat="43.55803" lon="6.79568">
        <ele>149.6</ele>
        <time>2025-10-24T06:31:52.000Z</time>
      </trkpt>
      <trkpt lat="43.55803" lon="6.79565">
        <ele>149.5</ele>
        <time>2025-10-24T06:31:53.000Z</time>
      </trkpt>
      <trkpt lat="43.55802" lon="6.79561">
        <ele>149.3</ele>
        <time>2025-10-24T06:31:54.000Z</time>
      </trkpt>
      <trkpt lat="43.55801" lon="6.79558">
        <ele>149.2</ele>
        <time>2025-10-24T06:31:55.000Z</time>
      </trkpt>
      <trkpt lat="43.558" lon="6.79554">
        <ele>149</ele>
        <time>2025-10-24T06:31:56.000Z</time>
      </trkpt>
      <trkpt lat="43.55799" lon="6.7955">
        <ele>148.8</ele>
        <time>2025-10-24T06:31:57.000Z</time>
      </trkpt>
      <trkpt lat="43.55798" lon="6.79546">
        <ele>148.6</ele>
        <time>2025-10-24T06:31:58.000Z</time>
      </trkpt>
      <trkpt lat="43.55797" lon="6.79542">
        <ele>148.4</ele>
        <time>2025-10-24T06:31:59.000Z</time>
      </trkpt>
      <trkpt lat="43.55796" lon="6.79539">
        <ele>148.3</ele>
        <time>2025-10-24T06:32:00.000Z</time>
      </trkpt>
      <trkpt lat="43.55795" lon="6.79535">
        <ele>148.1</ele>
        <time>2025-10-24T06:32:01.000Z</time>
      </trkpt>
      <trkpt lat="43.55794" lon="6.79531">
        <ele>148</ele>
        <time>2025-10-24T06:32:02.000Z</time>
      </trkpt>
      <trkpt lat="43.55792" lon="6.79528">
        <ele>147.8</ele>
        <time>2025-10-24T06:32:03.000Z</time>
      </trkpt>
      <trkpt lat="43.55791" lon="6.79524">
        <ele>147.6</ele>
        <time>2025-10-24T06:32:04.000Z</time>
      </trkpt>
      <trkpt lat="43.5579" lon="6.79521">
        <ele>147.4</ele>
        <time>2025-10-24T06:32:05.000Z</time>
      </trkpt>
      <trkpt lat="43.55788" lon="6.79518">
        <ele>147.3</ele>
        <time>2025-10-24T06:32:06.000Z</time>
      </trkpt>
      <trkpt lat="43.55787" lon="6.79516">
        <ele>147.2</ele>
        <time>2025-10-24T06:32:07.000Z</time>
      </trkpt>
      <trkpt lat="43.55786" lon="6.79514">
        <ele>147.1</ele>
        <time>2025-10-24T06:32:08.000Z</time>
      </trkpt>
      <trkpt lat="43.55785" lon="6.79511">
        <ele>146.9</ele>
        <time>2025-10-24T06:32:09.000Z</time>
      </trkpt>
      <trkpt lat="43.55784" lon="6.79509">
        <ele>147</ele>
        <time>2025-10-24T06:32:10.000Z</time>
      </trkpt>
      <trkpt lat="43.55783" lon="6.79507">
        <ele>147</ele>
        <time>2025-10-24T06:32:11.000Z</time>
      </trkpt>
      <trkpt lat="43.55783" lon="6.79505">
        <ele>147</ele>
        <time>2025-10-24T06:32:12.000Z</time>
      </trkpt>
      <trkpt lat="43.55783" lon="6.79503">
        <ele>147.1</ele>
        <time>2025-10-24T06:32:13.000Z</time>
      </trkpt>
      <trkpt lat="43.55783" lon="6.79501">
        <ele>147.2</ele>
        <time>2025-10-24T06:32:14.000Z</time>
      </trkpt>
      <trkpt lat="43.55782" lon="6.79499">
        <ele>147.3</ele>
        <time>2025-10-24T06:32:15.000Z</time>
      </trkpt>
      <trkpt lat="43.55781" lon="6.79497">
        <ele>147.4</ele>
        <time>2025-10-24T06:32:16.000Z</time>
      </trkpt>
      <trkpt lat="43.5578" lon="6.79496">
        <ele>147.4</ele>
        <time>2025-10-24T06:32:17.000Z</time>
      </trkpt>
      <trkpt lat="43.55779" lon="6.79496">
        <ele>147.5</ele>
        <time>2025-10-24T06:32:18.000Z</time>
      </trkpt>
      <trkpt lat="43.55778" lon="6.79496">
        <ele>147.5</ele>
        <time>2025-10-24T06:32:19.000Z</time>
      </trkpt>
      <trkpt lat="43.55778" lon="6.79496">
        <ele>147.4</ele>
        <time>2025-10-24T06:32:20.000Z</time>
      </trkpt>
      <trkpt lat="43.55778" lon="6.79496">
        <ele>147.5</ele>
        <time>2025-10-24T06:32:21.000Z</time>
      </trkpt>
      <trkpt lat="43.55778" lon="6.79496">
        <ele>147.6</ele>
        <time>2025-10-24T06:32:22.000Z</time>
      </trkpt>
      <trkpt lat="43.55777" lon="6.79495">
        <ele>147.6</ele>
        <time>2025-10-24T06:32:23.000Z</time>
      </trkpt>
      <trkpt lat="43.55775" lon="6.79493">
        <ele>147.6</ele>
        <time>2025-10-24T06:32:24.000Z</time>
      </trkpt>
      <trkpt lat="43.55774" lon="6.79491">
        <ele>147.6</ele>
        <time>2025-10-24T06:32:25.000Z</time>
      </trkpt>
      <trkpt lat="43.55772" lon="6.7949">
        <ele>147.6</ele>
        <time>2025-10-24T06:32:26.000Z</time>
      </trkpt>
      <trkpt lat="43.55771" lon="6.79489">
        <ele>147.6</ele>
        <time>2025-10-24T06:32:27.000Z</time>
      </trkpt>
      <trkpt lat="43.55771" lon="6.79489">
        <ele>147.6</ele>
        <time>2025-10-24T06:32:28.000Z</time>
      </trkpt>
      <trkpt lat="43.5577" lon="6.79489">
        <ele>147.6</ele>
        <time>2025-10-24T06:32:29.000Z</time>
      </trkpt>
      <trkpt lat="43.5577" lon="6.79489">
        <ele>147.6</ele>
        <time>2025-10-24T06:32:30.000Z</time>
      </trkpt>
      <trkpt lat="43.5577" lon="6.79489">
        <ele>147.7</ele>
        <time>2025-10-24T06:32:31.000Z</time>
      </trkpt>
      <trkpt lat="43.5577" lon="6.79488">
        <ele>147.7</ele>
        <time>2025-10-24T06:32:32.000Z</time>
      </trkpt>
      <trkpt lat="43.5577" lon="6.79488">
        <ele>147.7</ele>
        <time>2025-10-24T06:32:33.000Z</time>
      </trkpt>
      <trkpt lat="43.55769" lon="6.79487">
        <ele>147.6</ele>
        <time>2025-10-24T06:32:34.000Z</time>
      </trkpt>
      <trkpt lat="43.55768" lon="6.79486">
        <ele>147.6</ele>
        <time>2025-10-24T06:32:35.000Z</time>
      </trkpt>
      <trkpt lat="43.55766" lon="6.79484">
        <ele>147.7</ele>
        <time>2025-10-24T06:32:36.000Z</time>
      </trkpt>
      <trkpt lat="43.55765" lon="6.79481">
        <ele>147.6</ele>
        <time>2025-10-24T06:32:37.000Z</time>
      </trkpt>
      <trkpt lat="43.55764" lon="6.79478">
        <ele>147.6</ele>
        <time>2025-10-24T06:32:38.000Z</time>
      </trkpt>
      <trkpt lat="43.55763" lon="6.79475">
        <ele>147.6</ele>
        <time>2025-10-24T06:32:39.000Z</time>
      </trkpt>
      <trkpt lat="43.55762" lon="6.79472">
        <ele>147.6</ele>
        <time>2025-10-24T06:32:40.000Z</time>
      </trkpt>
      <trkpt lat="43.5576" lon="6.79468">
        <ele>147.7</ele>
        <time>2025-10-24T06:32:41.000Z</time>
      </trkpt>
      <trkpt lat="43.55758" lon="6.79466">
        <ele>147.7</ele>
        <time>2025-10-24T06:32:42.000Z</time>
      </trkpt>
      <trkpt lat="43.55755" lon="6.79464">
        <ele>147.7</ele>
        <time>2025-10-24T06:32:43.000Z</time>
      </trkpt>
      <trkpt lat="43.55753" lon="6.79462">
        <ele>147.8</ele>
        <time>2025-10-24T06:32:44.000Z</time>
      </trkpt>
      <trkpt lat="43.5575" lon="6.79461">
        <ele>147.9</ele>
        <time>2025-10-24T06:32:45.000Z</time>
      </trkpt>
      <trkpt lat="43.55746" lon="6.79458">
        <ele>148</ele>
        <time>2025-10-24T06:32:46.000Z</time>
      </trkpt>
      <trkpt lat="43.55744" lon="6.79457">
        <ele>148</ele>
        <time>2025-10-24T06:32:47.000Z</time>
      </trkpt>
      <trkpt lat="43.55742" lon="6.79455">
        <ele>148</ele>
        <time>2025-10-24T06:32:48.000Z</time>
      </trkpt>
      <trkpt lat="43.5574" lon="6.79454">
        <ele>148.1</ele>
        <time>2025-10-24T06:32:49.000Z</time>
      </trkpt>
      <trkpt lat="43.55738" lon="6.79452">
        <ele>148.1</ele>
        <time>2025-10-24T06:32:50.000Z</time>
      </trkpt>
      <trkpt lat="43.55735" lon="6.79449">
        <ele>148.2</ele>
        <time>2025-10-24T06:32:51.000Z</time>
      </trkpt>
      <trkpt lat="43.55733" lon="6.79447">
        <ele>148.2</ele>
        <time>2025-10-24T06:32:52.000Z</time>
      </trkpt>
      <trkpt lat="43.55728" lon="6.79445">
        <ele>148.3</ele>
        <time>2025-10-24T06:32:53.000Z</time>
      </trkpt>
      <trkpt lat="43.55726" lon="6.79444">
        <ele>148.4</ele>
        <time>2025-10-24T06:32:54.000Z</time>
      </trkpt>
      <trkpt lat="43.55723" lon="6.79444">
        <ele>148.4</ele>
        <time>2025-10-24T06:32:55.000Z</time>
      </trkpt>
      <trkpt lat="43.55719" lon="6.79444">
        <ele>148.5</ele>
        <time>2025-10-24T06:32:56.000Z</time>
      </trkpt>
      <trkpt lat="43.55715" lon="6.79445">
        <ele>148.5</ele>
        <time>2025-10-24T06:32:57.000Z</time>
      </trkpt>
      <trkpt lat="43.55712" lon="6.79446">
        <ele>148.6</ele>
        <time>2025-10-24T06:32:58.000Z</time>
      </trkpt>
      <trkpt lat="43.55709" lon="6.79448">
        <ele>148.6</ele>
        <time>2025-10-24T06:32:59.000Z</time>
      </trkpt>
      <trkpt lat="43.55705" lon="6.79449">
        <ele>148.7</ele>
        <time>2025-10-24T06:33:00.000Z</time>
      </trkpt>
      <trkpt lat="43.55701" lon="6.7945">
        <ele>148.7</ele>
        <time>2025-10-24T06:33:01.000Z</time>
      </trkpt>
      <trkpt lat="43.55697" lon="6.79451">
        <ele>148.8</ele>
        <time>2025-10-24T06:33:02.000Z</time>
      </trkpt>
      <trkpt lat="43.55694" lon="6.79452">
        <ele>148.8</ele>
        <time>2025-10-24T06:33:03.000Z</time>
      </trkpt>
      <trkpt lat="43.5569" lon="6.79453">
        <ele>148.8</ele>
        <time>2025-10-24T06:33:04.000Z</time>
      </trkpt>
      <trkpt lat="43.55685" lon="6.79453">
        <ele>148.8</ele>
        <time>2025-10-24T06:33:05.000Z</time>
      </trkpt>
      <trkpt lat="43.55681" lon="6.79454">
        <ele>148.9</ele>
        <time>2025-10-24T06:33:06.000Z</time>
      </trkpt>
      <trkpt lat="43.55677" lon="6.79455">
        <ele>148.9</ele>
        <time>2025-10-24T06:33:07.000Z</time>
      </trkpt>
      <trkpt lat="43.55674" lon="6.79456">
        <ele>148.9</ele>
        <time>2025-10-24T06:33:08.000Z</time>
      </trkpt>
      <trkpt lat="43.55671" lon="6.79456">
        <ele>148.9</ele>
        <time>2025-10-24T06:33:09.000Z</time>
      </trkpt>
      <trkpt lat="43.55666" lon="6.79457">
        <ele>149</ele>
        <time>2025-10-24T06:33:10.000Z</time>
        <extensions>
          <visugpx:TrkExtension xmlns:visugpx="https://www.visugpx.com/editgpx/">
            <visugpx:node>1</visugpx:node>
            </visugpx:TrkExtension>
        </extensions>
      </trkpt>
    </trkseg>
  </trk>
</gpx>